Time;durP1;ratioP1;P1;durP2;ratioP2;P2;SDS_P1;SDS_P2;PMS_P1;PMS_P2;Temp;Humidity;BMP_temperature;BMP_pressure;BME280_temperature;BME280_humidity;BME280_pressure;Samples;Min_cycle;Max_cycle;Signal;HPM_P1;HPM_P2
2023/05/04 00:02:03;;;;;;;0.45;0.30;;;16.30;99.80;;;;;;6098694;23;20422;-81
2023/05/04 00:04:30;;;;;;;0.80;0.30;;;16.30;99.70;;;;;;6097529;23;20407;-81
2023/05/04 00:06:57;;;;;;;0.30;0.30;;;16.30;99.90;;;;;;6098889;23;20372;-81
2023/05/04 00:09:24;;;;;;;0.38;0.38;;;16.30;99.90;;;;;;6097647;23;20439;-81
2023/05/04 00:11:51;;;;;;;0.30;0.30;;;16.30;99.90;;;;;;6098712;23;20415;-81
2023/05/04 00:14:18;;;;;;;0.50;0.40;;;16.20;99.90;;;;;;6097724;23;20446;-82
2023/05/04 00:16:44;;;;;;;0.40;0.33;;;16.20;99.90;;;;;;6098908;23;20400;-81
2023/05/04 00:19:11;;;;;;;0.50;0.40;;;16.20;99.90;;;;;;6098103;23;20821;-81
2023/05/04 00:21:38;;;;;;;0.70;0.40;;;16.20;99.90;;;;;;6097654;23;20672;-81
2023/05/04 00:24:05;;;;;;;0.30;0.30;;;16.20;99.90;;;;;;6098376;23;20404;-81
2023/05/04 00:26:32;;;;;;;0.80;0.30;;;16.20;99.90;;;;;;6098194;23;20380;-81
2023/05/04 00:28:59;;;;;;;0.90;0.52;;;16.20;99.90;;;;;;6097804;23;20392;-81
2023/05/04 00:31:27;;;;;;;0.40;0.40;;;16.20;99.90;;;;;;6097428;23;20375;-81
2023/05/04 00:33:54;;;;;;;0.30;0.30;;;16.20;99.90;;;;;;6123714;23;20367;-81
2023/05/04 00:36:21;;;;;;;0.30;0.30;;;16.20;99.90;;;;;;6097575;23;20400;-81
2023/05/04 00:38:50;;;;;;;0.60;0.40;;;16.20;99.90;;;;;;6098322;23;20443;-81
2023/05/04 00:41:18;;;;;;;0.40;0.30;;;16.20;99.90;;;;;;6097522;23;20460;-81
2023/05/04 00:43:45;;;;;;;0.70;0.60;;;16.20;99.90;;;;;;6098310;23;20372;-82
2023/05/04 00:46:12;;;;;;;0.50;0.40;;;16.10;99.90;;;;;;6098450;23;20815;-81
2023/05/04 00:48:45;;;;;;;0.40;0.40;;;16.10;99.90;;;;;;6097190;23;20717;-80
2023/05/04 00:51:14;;;;;;;1.08;0.50;;;16.10;99.90;;;;;;6097821;23;20463;-81
2023/05/04 00:53:41;;;;;;;0.50;0.43;;;16.10;99.90;;;;;;6097823;23;20380;-82
2023/05/04 00:56:08;;;;;;;0.75;0.43;;;16.10;99.90;;;;;;6098027;23;20431;-81
2023/05/04 00:58:35;;;;;;;1.67;0.50;;;16.10;99.90;;;;;;6096968;23;20447;-81
2023/05/04 01:01:02;;;;;;;1.00;0.50;;;16.00;99.90;;;;;;6100482;23;20408;-83
2023/05/04 15:07:59;;;;;;;0.75;0.60;;;26.30;40.00;;;;;;6118767;23;20362;31
2023/05/04 15:10:26;;;;;;;0.57;0.50;;;26.30;38.70;;;;;;6128625;23;20421;-89
2023/05/04 15:12:53;;;;;;;0.40;0.40;;;26.20;39.30;;;;;;6153593;23;20437;-86
2023/05/04 15:15:21;;;;;;;1.40;0.30;;;26.20;39.80;;;;;;6129479;23;20374;-86
2023/05/04 15:17:48;;;;;;;1.10;0.40;;;26.20;40.30;;;;;;6127633;23;20836;-86
2023/05/04 15:20:16;;;;;;;0.77;0.70;;;26.50;40.90;;;;;;6154869;23;20389;-88
2023/05/04 15:22:49;;;;;;;1.30;0.70;;;26.50;38.00;;;;;;6127372;23;20412;-87
2023/05/04 15:25:22;;;;;;;0.40;0.40;;;26.50;37.60;;;;;;6128569;23;20388;-85
2023/05/04 15:27:49;;;;;;;0.60;0.30;;;26.40;38.50;;;;;;6128814;23;20382;-81
2023/05/04 15:30:16;;;;;;;1.20;0.60;;;26.40;39.40;;;;;;6128405;23;20685;-85
2023/05/04 15:32:43;;;;;;;0.65;0.50;;;26.40;38.20;;;;;;6126770;23;20381;-85
2023/05/04 15:35:10;;;;;;;0.93;0.55;;;26.30;38.20;;;;;;6128937;23;20374;-84
2023/05/04 15:37:37;;;;;;;0.68;0.50;;;26.10;38.40;;;;;;6127882;23;20384;-88
2023/05/04 15:40:04;;;;;;;0.73;0.40;;;25.90;38.70;;;;;;6128529;23;20370;-85
2023/05/04 15:42:31;;;;;;;1.02;0.40;;;25.80;39.70;;;;;;6128168;23;20378;-85
2023/05/04 15:44:58;;;;;;;1.20;0.50;;;25.80;40.30;;;;;;6127692;23;21099;-87
2023/05/04 15:47:25;;;;;;;0.73;0.70;;;25.80;40.00;;;;;;6128252;23;20410;-86
2023/05/04 15:49:52;;;;;;;0.80;0.50;;;25.60;38.70;;;;;;6127337;23;20409;-86
2023/05/04 15:52:19;;;;;;;0.80;0.80;;;25.30;39.60;;;;;;6128109;23;20366;-86
2023/05/04 15:54:46;;;;;;;1.48;0.73;;;25.00;39.50;;;;;;6127376;23;20381;-86
2023/05/04 15:57:14;;;;;;;0.83;0.60;;;24.70;40.10;;;;;;6127832;23;20405;-88
2023/05/04 15:59:41;;;;;;;0.60;0.57;;;24.50;40.50;;;;;;6127247;23;20844;-89
2023/05/04 16:02:11;;;;;;;0.70;0.70;;;24.30;41.10;;;;;;6128514;23;20370;-89
2023/05/04 16:04:38;;;;;;;1.17;0.70;;;24.20;41.30;;;;;;6126800;23;20375;-88
2023/05/04 16:07:05;;;;;;;0.73;0.60;;;24.10;41.80;;;;;;6128052;23;20700;-88
2023/05/04 16:09:32;;;;;;;2.92;0.60;;;24.00;42.40;;;;;;6153213;23;20933;-88
2023/05/04 16:11:58;;;;;;;0.90;0.60;;;23.90;42.90;;;;;;6126979;23;20362;-88
2023/05/04 16:14:25;;;;;;;1.67;0.70;;;23.80;43.40;;;;;;6128256;23;20429;-88
2023/05/04 16:16:52;;;;;;;0.60;0.60;;;23.70;43.20;;;;;;6127266;23;20430;-88
2023/05/04 16:19:20;;;;;;;0.93;0.50;;;23.70;43.40;;;;;;6128077;23;20700;-88
2023/05/04 16:21:50;;;;;;;1.20;0.75;;;23.60;43.70;;;;;;6152838;23;20378;-88
2023/05/04 16:24:17;;;;;;;0.85;0.80;;;23.50;43.70;;;;;;6128105;23;20441;-88
2023/05/04 16:26:43;;;;;;;1.50;0.60;;;23.40;43.90;;;;;;6126892;23;20700;-88
2023/05/04 16:29:11;;;;;;;0.95;0.80;;;23.30;43.40;;;;;;6128192;23;20374;-88
2023/05/04 16:31:38;;;;;;;0.68;0.60;;;23.30;43.80;;;;;;6126894;23;20429;-88
2023/05/04 16:34:05;;;;;;;0.70;0.70;;;23.20;44.40;;;;;;6128016;23;20428;-88
2023/05/04 16:36:32;;;;;;;0.65;0.63;;;23.20;44.90;;;;;;6127744;23;20398;-88
2023/05/04 16:38:59;;;;;;;1.10;0.68;;;23.20;45.40;;;;;;6126833;23;20401;-87
2023/05/04 16:41:29;;;;;;;1.60;0.53;;;23.30;45.90;;;;;;6127390;23;20496;-88
2023/05/04 16:43:56;;;;;;;0.60;0.60;;;23.30;45.70;;;;;;6124238;23;20374;-86
2023/05/04 16:46:23;;;;;;;0.82;0.70;;;23.30;45.90;;;;;;6126695;23;20374;-86
2023/05/04 16:48:50;;;;;;;1.88;0.60;;;23.30;45.90;;;;;;6125191;23;20377;-89
2023/05/04 16:51:16;;;;;;;0.75;0.50;;;23.20;45.60;;;;;;6127998;23;20708;-90
2023/05/04 16:53:43;;;;;;;0.43;0.43;;;23.20;45.50;;;;;;6127309;23;20382;-86
2023/05/04 16:56:17;;;;;;;0.50;0.50;;;23.20;46.00;;;;;;6127639;23;20370;-87
2023/05/04 16:58:44;;;;;;;0.50;0.50;;;23.20;46.60;;;;;;6152245;23;20440;-87
2023/05/04 17:01:11;;;;;;;2.00;0.40;;;23.20;46.90;;;;;;6127660;23;20440;-88
2023/05/04 17:03:38;;;;;;;1.02;0.70;;;23.20;46.80;;;;;;6127820;23;20374;-88
2023/05/04 17:06:05;;;;;;;0.65;0.60;;;23.30;47.20;;;;;;6127649;23;20373;-89
2023/05/04 17:08:33;;;;;;;0.50;0.50;;;23.20;46.90;;;;;;6127287;23;20708;-87
2023/05/04 17:11:00;;;;;;;0.40;0.40;;;23.20;46.90;;;;;;6151941;23;20424;-88
2023/05/04 17:13:27;;;;;;;0.60;0.40;;;23.10;46.90;;;;;;6124551;23;20736;-85
2023/05/04 17:15:54;;;;;;;0.50;0.38;;;23.10;47.10;;;;;;6120510;23;20401;-88
2023/05/04 17:18:21;;;;;;;0.40;0.40;;;23.10;47.30;;;;;;6127693;23;20848;-88
2023/05/04 17:20:48;;;;;;;0.40;0.40;;;23.20;47.80;;;;;;6126658;23;20428;-88
2023/05/04 17:23:15;;;;;;;0.50;0.40;;;23.20;47.90;;;;;;6127517;23;20405;-88
2023/05/04 17:25:43;;;;;;;0.90;0.40;;;23.20;48.10;;;;;;6126616;23;20386;-87
2023/05/04 17:28:10;;;;;;;0.50;0.50;;;23.20;48.20;;;;;;6125567;23;20744;-88
2023/05/04 17:30:39;;;;;;;0.43;0.35;;;23.20;47.80;;;;;;6127102;23;20401;-88
2023/05/04 17:33:06;;;;;;;0.70;0.50;;;23.10;47.40;;;;;;6126366;23;20428;-88
2023/05/04 17:35:33;;;;;;;0.50;0.40;;;23.00;47.40;;;;;;6127072;23;20385;-88
2023/05/04 17:38:00;;;;;;;0.50;0.40;;;22.90;47.80;;;;;;6125974;23;20398;-88
2023/05/04 17:40:28;;;;;;;0.47;0.40;;;22.80;48.70;;;;;;6152724;23;20398;-89
2023/05/04 17:42:55;;;;;;;1.10;0.60;;;22.70;49.60;;;;;;6125956;23;20756;-87
2023/05/04 17:45:23;;;;;;;0.60;0.50;;;22.60;49.50;;;;;;6152430;23;20425;-88
2023/05/04 17:47:50;;;;;;;0.50;0.50;;;22.50;48.80;;;;;;6126506;23;20374;-88
2023/05/04 17:50:19;;;;;;;0.40;0.40;;;22.40;48.90;;;;;;6127110;23;20755;-90
2023/05/04 17:52:53;;;;;;;0.65;0.60;;;22.30;49.60;;;;;;6126423;23;20768;-87
2023/05/04 17:55:23;;;;;;;0.60;0.60;;;22.20;50.10;;;;;;6127394;23;20757;-88
2023/05/04 17:57:51;;;;;;;0.87;0.50;;;22.10;51.10;;;;;;6126541;23;20398;-87
2023/05/04 18:00:19;;;;;;;0.90;0.70;;;22.00;52.10;;;;;;6127261;23;20720;-88
2023/05/04 18:02:46;;;;;;;1.13;0.88;;;21.90;53.00;;;;;;6126603;23;20756;-88
2023/05/04 18:05:13;;;;;;;1.17;0.88;;;21.80;53.80;;;;;;6126810;23;20425;-88
2023/05/04 18:07:40;;;;;;;1.00;0.90;;;21.70;55.30;;;;;;6126940;23;20382;-88
2023/05/04 18:10:07;;;;;;;1.38;1.00;;;21.60;55.70;;;;;;6125806;23;20370;-87
2023/05/04 18:12:36;;;;;;;0.98;0.70;;;21.50;57.40;;;;;;6126945;23;20378;-87
2023/05/04 18:15:07;;;;;;;0.70;0.70;;;21.40;58.20;;;;;;6126434;23;20370;-87
2023/05/04 18:17:36;;;;;;;0.77;0.77;;;21.30;59.80;;;;;;6127035;23;20674;-89
2023/05/04 18:20:09;;;;;;;1.00;0.80;;;21.20;61.70;;;;;;6151496;23;20360;-88
2023/05/04 18:22:36;;;;;;;0.90;0.90;;;21.10;62.90;;;;;;6126898;23;20848;-87
2023/05/04 18:25:03;;;;;;;1.10;1.00;;;21.00;63.80;;;;;;6125908;23;20370;-87
2023/05/04 18:27:32;;;;;;;0.80;0.70;;;20.90;66.60;;;;;;6127094;23;20903;-85
2023/05/04 18:30:00;;;;;;;1.30;0.80;;;20.80;66.00;;;;;;6126331;23;20370;-88
2023/05/04 18:32:27;;;;;;;0.70;0.70;;;20.60;68.30;;;;;;6126693;23;20443;-87
2023/05/04 18:34:56;;;;;;;0.60;0.60;;;20.50;67.30;;;;;;6126186;23;20382;-88
2023/05/04 18:37:24;;;;;;;0.55;0.55;;;20.40;67.00;;;;;;6102701;23;20409;-89
2023/05/04 18:39:51;;;;;;;0.82;0.70;;;20.30;67.50;;;;;;6126246;23;20378;-88
2023/05/04 18:42:18;;;;;;;0.85;0.85;;;20.20;67.50;;;;;;6127092;23;20737;-88
2023/05/04 18:44:45;;;;;;;0.95;0.63;;;20.00;68.00;;;;;;6127381;23;20402;-87
2023/05/04 18:47:14;;;;;;;1.50;0.90;;;19.90;69.50;;;;;;6126891;23;20369;-88
2023/05/04 18:49:42;;;;;;;0.60;0.60;;;19.80;70.00;;;;;;6127085;23;20445;-89
2023/05/04 18:52:09;;;;;;;1.20;0.60;;;19.60;70.70;;;;;;6126130;23;20378;-88
2023/05/04 18:54:36;;;;;;;1.38;0.80;;;19.50;71.40;;;;;;6126723;23;20374;-85
2023/05/04 18:57:03;;;;;;;0.80;0.73;;;19.40;72.50;;;;;;6126282;23;20814;-86
2023/05/04 18:59:33;;;;;;;0.60;0.60;;;19.40;73.70;;;;;;6152172;23;20398;-87
2023/05/04 19:02:02;;;;;;;0.73;0.60;;;19.20;73.50;;;;;;6126194;23;20457;-86
2023/05/04 19:04:29;;;;;;;1.00;0.90;;;19.10;74.40;;;;;;6126819;23;20453;-88
2023/05/04 19:06:56;;;;;;;0.90;0.70;;;19.10;75.10;;;;;;6125943;23;20410;-87
2023/05/04 19:09:23;;;;;;;1.03;0.80;;;19.00;74.80;;;;;;6126397;23;20445;-88
2023/05/04 19:11:51;;;;;;;1.33;0.63;;;18.90;75.90;;;;;;6126925;23;20397;-88
2023/05/04 19:14:24;;;;;;;0.57;0.52;;;18.90;76.10;;;;;;6126680;23;20374;-88
2023/05/04 19:16:52;;;;;;;1.10;0.70;;;18.80;76.40;;;;;;6127747;23;20377;-88
2023/05/04 19:19:19;;;;;;;0.63;0.63;;;18.70;76.00;;;;;;6125731;23;20867;-88
2023/05/04 19:21:50;;;;;;;0.82;0.70;;;18.70;77.70;;;;;;6152572;23;20760;-87
2023/05/04 19:24:21;;;;;;;0.90;0.80;;;18.60;77.40;;;;;;6128844;23;20401;-86
2023/05/04 19:26:48;;;;;;;1.40;1.10;;;18.60;79.10;;;;;;6152329;23;20413;-87
2023/05/04 19:29:15;;;;;;;1.30;1.00;;;18.50;81.20;;;;;;6125822;23;20378;-87
2023/05/04 19:31:44;;;;;;;1.10;1.05;;;18.40;81.00;;;;;;6103292;23;20401;-87
2023/05/04 19:34:13;;;;;;;1.30;1.08;;;18.40;82.20;;;;;;6151621;23;20713;-86
2023/05/04 19:36:43;;;;;;;1.17;1.00;;;18.30;82.50;;;;;;6128278;23;20374;-88
2023/05/04 19:39:10;;;;;;;2.00;1.40;;;18.20;84.80;;;;;;6124877;23;20378;-87
2023/05/04 19:41:38;;;;;;;1.73;1.25;;;18.20;90.70;;;;;;6129577;23;20393;-87
2023/05/04 19:44:09;;;;;;;1.60;1.23;;;18.00;88.50;;;;;;6114094;23;20378;-86
2023/05/04 19:46:36;;;;;;;2.20;1.65;;;18.00;89.80;;;;;;6104753;23;20393;-89
2023/05/04 19:49:04;;;;;;;1.77;1.20;;;17.90;91.40;;;;;;6129211;23;20436;-86
2023/05/04 19:51:31;;;;;;;1.70;1.60;;;17.80;91.00;;;;;;6127839;23;20374;-87
2023/05/04 19:53:58;;;;;;;1.10;1.00;;;17.70;90.70;;;;;;6128949;23;20385;-86
2023/05/04 19:56:25;;;;;;;1.70;1.10;;;17.70;91.10;;;;;;6127424;23;20796;-87
2023/05/04 19:58:52;;;;;;;2.40;0.82;;;17.70;90.70;;;;;;6128243;23;20836;-86
2023/05/04 20:01:19;;;;;;;0.85;0.80;;;17.60;90.70;;;;;;6127771;23;20378;-86
2023/05/04 20:03:48;;;;;;;1.30;1.10;;;17.60;90.50;;;;;;6104279;23;20737;-86
2023/05/04 20:06:17;;;;;;;1.08;0.98;;;17.50;90.40;;;;;;6127331;23;20454;-86
2023/05/04 20:08:47;;;;;;;1.05;0.80;;;17.50;90.30;;;;;;6129030;23;20366;-86
2023/05/04 20:11:17;;;;;;;1.00;0.90;;;17.40;90.30;;;;;;6127293;23;20410;-87
2023/05/04 20:13:44;;;;;;;1.00;0.90;;;17.40;90.50;;;;;;6127883;23;20378;-86
2023/05/04 20:16:11;;;;;;;1.85;0.90;;;17.30;90.20;;;;;;6127800;23;20370;-86
2023/05/04 20:18:39;;;;;;;1.92;0.95;;;17.30;90.40;;;;;;6127906;23;20381;-85
2023/05/04 20:21:06;;;;;;;0.90;0.85;;;17.30;90.40;;;;;;6127960;23;20445;-86
2023/05/04 20:23:33;;;;;;;1.10;0.90;;;17.20;90.00;;;;;;6126331;23;20370;-87
2023/05/04 20:26:00;;;;;;;1.58;1.10;;;17.10;91.00;;;;;;6127835;23;20388;-86
2023/05/04 20:28:29;;;;;;;1.10;1.00;;;17.10;92.40;;;;;;6127528;23;20374;-85
2023/05/04 20:30:56;;;;;;;1.50;0.90;;;17.00;91.80;;;;;;6128663;23;20712;-85
2023/05/04 20:33:24;;;;;;;2.17;1.38;;;17.00;93.80;;;;;;6127103;23;20374;-86
2023/05/04 20:35:54;;;;;;;0.90;0.90;;;16.90;95.80;;;;;;6103911;23;20373;-85
2023/05/04 20:38:22;;;;;;;1.23;1.00;;;16.80;94.00;;;;;;6127907;23;20401;-85
2023/05/04 20:40:51;;;;;;;1.15;1.05;;;16.70;96.40;;;;;;6128167;23;20367;-87
2023/05/04 20:43:21;;;;;;;1.45;1.20;;;16.60;96.20;;;;;;6128745;23;20374;-86
2023/05/04 20:45:57;;;;;;;0.90;0.90;;;16.50;95.90;;;;;;6123870;23;20394;-85
2023/05/04 20:48:28;;;;;;;0.98;0.98;;;16.40;95.60;;;;;;6105828;23;20378;-85
2023/05/04 20:50:57;;;;;;;1.20;1.10;;;16.30;96.10;;;;;;6103436;23;20362;-86
2023/05/04 20:53:40;;;;;;;1.27;1.17;;;16.30;98.20;;;;;;6130667;23;20378;-85
2023/05/04 20:56:09;;;;;;;1.13;1.03;;;16.20;97.20;;;;;;6081780;23;20821;-86
2023/05/04 20:58:46;;;;;;;1.23;1.13;;;16.20;98.20;;;;;;6153140;23;20402;-86
2023/05/04 21:01:20;;;;;;;1.50;0.93;;;16.10;97.80;;;;;;6078472;23;20367;-85
2023/05/04 21:03:49;;;;;;;2.00;1.10;;;16.10;97.40;;;;;;6128279;23;20366;-85
2023/05/04 21:06:17;;;;;;;1.20;1.10;;;16.00;97.40;;;;;;6127197;23;20369;-85
2023/05/04 21:08:50;;;;;;;1.20;1.10;;;16.00;97.20;;;;;;6128144;23;20437;-85
2023/05/04 21:11:22;;;;;;;1.63;1.27;;;16.00;97.70;;;;;;6089529;23;20385;-87
2023/05/04 21:13:54;;;;;;;0.90;0.90;;;15.90;97.80;;;;;;6117046;23;20382;-85
2023/05/04 21:16:26;;;;;;;1.30;1.20;;;15.90;98.20;;;;;;6094040;23;20382;-85
2023/05/04 21:19:04;;;;;;;1.67;1.15;;;15.80;98.70;;;;;;6056714;23;20380;-84
2023/05/04 21:21:33;;;;;;;2.08;1.88;;;15.80;98.20;;;;;;6071816;23;20704;-85
2023/05/04 21:24:02;;;;;;;2.00;1.83;;;15.80;99.50;;;;;;6093015;23;20365;-86
2023/05/04 21:26:31;;;;;;;1.77;1.67;;;15.70;99.10;;;;;;6093910;23;20385;-86
2023/05/04 21:29:01;;;;;;;1.88;1.70;;;15.70;99.90;;;;;;6119615;23;20408;-85
2023/05/04 21:31:32;;;;;;;1.40;1.30;;;15.60;99.90;;;;;;6098201;23;20461;-86
2023/05/04 21:34:01;;;;;;;1.50;1.40;;;15.60;99.90;;;;;;6073391;23;20391;-86
2023/05/04 21:36:31;;;;;;;1.25;1.15;;;15.60;99.80;;;;;;6092939;23;20776;-85
2023/05/04 21:38:58;;;;;;;1.98;1.55;;;15.60;99.40;;;;;;6068137;23;20377;-84
2023/05/04 21:41:28;;;;;;;1.58;1.48;;;15.50;99.90;;;;;;6067408;23;20385;-85
2023/05/04 21:43:55;;;;;;;1.75;1.65;;;15.50;99.90;;;;;;6027284;23;20385;-85
2023/05/04 21:46:30;;;;;;;1.85;1.50;;;15.50;99.90;;;;;;6070021;23;20428;-85
2023/05/04 21:49:00;;;;;;;1.90;1.40;;;15.40;99.90;;;;;;6069481;23;20382;-87
2023/05/04 21:51:27;;;;;;;1.50;1.40;;;15.40;99.90;;;;;;6067995;23;20499;-86
2023/05/04 21:53:56;;;;;;;1.70;1.60;;;15.30;99.90;;;;;;6069055;23;20378;-84
2023/05/04 21:56:24;;;;;;;2.03;1.60;;;15.30;99.90;;;;;;6067886;23;20388;-85
2023/05/04 21:58:54;;;;;;;1.65;1.55;;;15.30;99.90;;;;;;6068678;23;20385;-84
2023/05/04 22:01:22;;;;;;;1.60;1.50;;;15.30;99.90;;;;;;6094008;23;20375;-85
2023/05/04 22:03:49;;;;;;;1.50;1.40;;;15.20;99.90;;;;;;6097447;23;20447;-85
2023/05/04 22:06:20;;;;;;;1.60;1.50;;;15.20;99.90;;;;;;6072487;23;20757;-84
2023/05/04 22:08:48;;;;;;;2.08;1.60;;;15.20;99.90;;;;;;6098073;23;20378;-85
2023/05/04 22:11:24;;;;;;;2.10;1.90;;;15.10;99.90;;;;;;6082312;23;20383;-85
2023/05/04 22:13:55;;;;;;;1.98;1.80;;;15.10;99.90;;;;;;6092756;23;20377;-85
2023/05/04 22:16:26;;;;;;;2.00;1.80;;;15.10;99.90;;;;;;6093303;23;20389;-85
2023/05/04 22:18:53;;;;;;;2.08;1.88;;;15.10;99.90;;;;;;6092279;23;20389;-85
2023/05/04 22:21:22;;;;;;;2.47;1.77;;;15.10;99.90;;;;;;6093534;23;20433;-85
2023/05/04 22:23:53;;;;;;;1.50;1.40;;;15.10;99.90;;;;;;6092186;23;20432;-86
2023/05/04 22:26:22;;;;;;;1.88;1.52;;;15.10;99.90;;;;;;6063938;23;20386;-85
2023/05/04 22:28:52;;;;;;;1.70;1.60;;;15.00;99.90;;;;;;6089925;23;20383;-85
2023/05/04 22:31:23;;;;;;;1.95;1.55;;;15.00;99.90;;;;;;6063334;23;20434;-85
2023/05/04 22:33:54;;;;;;;2.55;1.55;;;15.00;99.90;;;;;;6092790;23;20433;-85
2023/05/04 22:36:21;;;;;;;1.65;1.55;;;15.00;99.90;;;;;;6093184;23;20709;-86
2023/05/04 22:38:51;;;;;;;2.25;1.60;;;14.90;99.90;;;;;;6091873;23;20428;-87
2023/05/04 22:41:21;;;;;;;2.17;2.03;;;14.90;99.90;;;;;;6064290;23;20447;-86
2023/05/04 22:43:49;;;;;;;1.90;1.75;;;14.90;99.90;;;;;;6091686;23;20382;-84
2023/05/04 22:46:16;;;;;;;1.83;1.60;;;14.90;99.90;;;;;;6091086;23;20382;-85
2023/05/04 22:48:48;;;;;;;1.50;1.40;;;14.90;99.90;;;;;;6061411;23;20387;-85
2023/05/04 22:51:15;;;;;;;1.60;1.50;;;14.90;99.90;;;;;;6083726;23;20369;-85
2023/05/04 22:53:43;;;;;;;1.42;1.20;;;14.90;99.90;;;;;;6091851;23;20757;-86
2023/05/04 22:56:17;;;;;;;1.65;1.48;;;14.90;99.90;;;;;;6092091;23;20460;-85
2023/05/04 22:58:51;;;;;;;1.52;1.35;;;14.90;99.90;;;;;;6065326;23;20379;-84
2023/05/04 23:01:18;;;;;;;3.30;2.03;;;14.90;99.90;;;;;;6083040;23;20373;-84
2023/05/04 23:03:45;;;;;;;2.92;1.63;;;15.00;99.60;;;;;;6078255;23;20374;-84
2023/05/04 23:06:13;;;;;;;1.57;1.47;;;15.10;99.00;;;;;;6081084;23;20706;-84
2023/05/04 23:08:41;;;;;;;2.00;1.80;;;15.10;98.90;;;;;;6094908;23;20385;-84
2023/05/04 23:11:08;;;;;;;2.70;1.80;;;15.20;98.30;;;;;;6126972;23;20689;-84
2023/05/04 23:13:36;;;;;;;1.53;1.43;;;15.30;97.50;;;;;;6128522;23;20440;-85
2023/05/04 23:16:06;;;;;;;1.88;1.77;;;15.40;97.20;;;;;;6103864;23;20381;-84
2023/05/04 23:18:34;;;;;;;1.80;1.70;;;15.40;96.10;;;;;;6153001;23;20382;-85
2023/05/04 23:21:05;;;;;;;2.00;1.42;;;15.50;96.30;;;;;;6128810;23;20386;-85
2023/05/04 23:23:32;;;;;;;2.38;1.70;;;15.50;96.30;;;;;;6129213;23;20378;-85
2023/05/04 23:25:59;;;;;;;2.33;1.83;;;15.50;95.90;;;;;;6128428;23;20751;-85
2023/05/04 23:28:28;;;;;;;3.00;1.52;;;15.60;95.40;;;;;;6129576;23;20381;-85
2023/05/04 23:30:57;;;;;;;1.75;1.50;;;15.60;95.10;;;;;;6126224;23;20851;-85
2023/05/04 23:33:26;;;;;;;1.42;1.33;;;15.60;94.30;;;;;;6129119;23;20378;-85
2023/05/04 23:35:54;;;;;;;2.17;1.42;;;15.70;94.10;;;;;;6127686;23;20377;-83
2023/05/04 23:38:21;;;;;;;1.60;1.50;;;15.70;94.00;;;;;;6127634;23;20424;-84
2023/05/04 23:40:51;;;;;;;2.20;1.63;;;15.80;94.20;;;;;;6128698;23;20382;-84
2023/05/04 23:43:21;;;;;;;1.80;1.70;;;15.80;94.90;;;;;;6102598;23;20433;-85
2023/05/04 23:45:57;;;;;;;1.90;1.60;;;15.70;95.60;;;;;;6129325;23;20370;-85
2023/05/04 23:48:24;;;;;;;2.37;1.57;;;15.70;94.80;;;;;;6128499;23;20704;-85
2023/05/04 23:50:52;;;;;;;2.50;1.30;;;15.70;94.80;;;;;;6128529;23;20754;-85
2023/05/04 23:53:20;;;;;;;2.25;1.70;;;15.60;94.90;;;;;;6110525;23;20792;-85
2023/05/04 23:55:56;;;;;;;1.70;1.30;;;15.60;95.20;;;;;;6108542;23;20378;-85
2023/05/04 23:58:23;;;;;;;2.47;1.42;;;15.60;94.60;;;;;;6153509;23;20382;-85
